Gingelom, Belgium

1:33 PM CEST on June 22, 2018 (GMT +0200)
Haspengouw | | Change Station

Elev 276 ft 50.74 °N, 5.13 °E | Updated 21 seconds ago

Mostly Cloudy
Mostly Cloudy
61 °F
Feels Like 61 °F
N
5.1
Wind Variable Wind from South
Gusts 6.9 mph

Today
High -- | Low -- °F
--% Chance of Precip.
Yesterday
High -- | Low -- °F
Precip. -- in
Pressure 30.33 in
Visibility 6.2 miles
Clouds Few 3500 ft
Mostly Cloudy 5500 ft
Dew Point 61 °F
Humidity 99%
Rainfall 0.00 in
Snow Depth Not available.
5:26 AM 9:56 PM
Waxing Gibbous, 71% visible
METAR EBBL 221055Z 30011KT 9999 FEW035 BKN055 16/07 Q1027 BLU BLU
Pressure 30.33 in
Visibility 6.2 miles
Clouds Few 3500 ft
Mostly Cloudy 5500 ft
Dew Point 61 °F
Humidity 99%
Rainfall 0.00 in
Snow Depth Not available.
5:26 AM 9:56 PM
Waxing Gibbous, 71% visible
METAR EBBL 221055Z 30011KT 9999 FEW035 BKN055 16/07 Q1027 BLU BLU

Get Severe Weather Alerts

Thanks for signing up!

Be on the lookout for a verification email in your inbox.

You'll start receiving the daily forecast at 6 AM.

×

10-Day Weather Forecast

×

Almanac

Astronomy

Jun. 22, 2018 Rise Set
Actual Time
Civil Twilight
Nautical Twilight
Astronomical Twilight
Moon
Length of Visible Light
Length of Day
Tomorrow will be .
, % of the Moon is Illuminated

Today's Extremes

Country Highs Country Lows

Community

WunderPhotos

Category 6

Welcome to Category 6. This is the collective home for Weather Underground's featured writeups by Dr. Jeff Masters (right), Bob Henson (left), Chris Burt, and other regular contributors.

Nearby

Air Quality

  Air Quality AQ Index Pollutant
Not available.

Snow Depth

Station Depth Elevation

Earthquake Activity

City Distance Mag. Time & Date
Minimum magnitude displayed is 2.5.

Coastal Water Temperatures

Place Temperature

Stations

Nearby Weather Stations

Station Location Temp. Windchill Dew Point Humidity Wind Precip. Elev Updated Type